This is the latest recevied weather packets stored in our database for station/object N0HOT. If no packets are shown the sender has not sent any weather packets the latest 10 day(s).
| Time | Temp. | Humidity | Pressure | Rain* | Wind** | Luminosity | Snow |
|---|---|---|---|---|---|---|---|
| 1777045856 | 12.78° C | 54% | 1008.3 hPa | 0 mm | - | 720 W/m² | - |
| 1777045551 | 12.22° C | 54% | 1008 hPa | 0 mm | - | 711 W/m² | - |
| 1777045248 | 12.22° C | 55% | 1008.3 hPa | 0 mm | - | 704 W/m² | - |
| 1777044944 | 12.22° C | 55% | 1008.3 hPa | 0 mm | - | 692 W/m² | - |
| 1777044639 | 11.67° C | 55% | 1008 hPa | 0 mm | - | 685 W/m² | - |
| 1777044336 | 11.67° C | 56% | 1008.3 hPa | 0 mm | - | 680 W/m² | - |
| 1777044031 | 11.67° C | 58% | 1008.3 hPa | 0 mm | - | 633 W/m² | - |
| 1777043728 | 11.67° C | 56% | 1008.3 hPa | 0 mm | - | 647 W/m² | - |
| 1777043425 | 11.67° C | 57% | 1008 hPa | 0 mm | - | 642 W/m² | - |
| 1777043121 | 11.11° C | 59% | 1008 hPa | 0 mm | - | 613 W/m² | - |
| 1777042816 | 11.11° C | 57% | 1008 hPa | 0 mm | - | 619 W/m² | - |
| 1777042512 | 11.11° C | 58% | 1008 hPa | 0 mm | - | 604 W/m² | - |
| 1777042208 | 11.11° C | 57% | 1008 hPa | 0 mm | - | 574 W/m² | - |
| 1777041904 | 11.11° C | 59% | 1008 hPa | 0 mm | - | 449 W/m² | - |
| 1777041601 | 10.56° C | 62% | 1008 hPa | 0 mm | - | 335 W/m² | - |
| 1777041297 | 10.56° C | 60% | 1008.3 hPa | 0 mm | - | 428 W/m² | - |
| 1777040994 | 10.56° C | 62% | 1007.7 hPa | 0 mm | - | 259 W/m² | - |
| 1777040690 | 10.56° C | 61% | 1007.7 hPa | 0 mm | - | 403 W/m² | - |
| 1777040389 | 10.56° C | 63% | 1007.7 hPa | 0 mm | - | 214 W/m² | - |
| 1777040084 | 10.56° C | 62% | 1007.7 hPa | 0 mm | - | 255 W/m² | - |
| 1777039781 | 10° C | 62% | 1007.7 hPa | 0 mm | - | 275 W/m² | - |
| 1777039476 | 10° C | 66% | 1007.3 hPa | 0 mm | - | 204 W/m² | - |
| 1777039171 | 10° C | 66% | 1007.7 hPa | 0 mm | - | 190 W/m² | - |
| 1777038870 | 10° C | 66% | 1007.7 hPa | 0 mm | - | 166 W/m² | - |
| 1777038567 | 10° C | 66% | 1007.7 hPa | 0 mm | - | 166 W/m² | - |
* Rain latest hour (hover to see other rain measurements)
** Current wind speed in m/s (hover to see current wind gust speed)